Time;durP1;ratioP1;P1;durP2;ratioP2;P2;SDS_P1;SDS_P2;PMS_P1;PMS_P2;Temp;Humidity;BMP_temperature;BMP_pressure;BME280_temperature;BME280_humidity;BME280_pressure;Samples;Min_cycle;Max_cycle;Signal;HPM_P1;HPM_P2
2022/02/25 00:00:20;;;;;;;13.97;7.47;;;;;;;14.46;44.58;100824.84;5042970;28;20081;-72
2022/02/25 00:02:47;;;;;;;16.93;6.50;;;;;;;14.59;44.66;100851.41;5023408;28;20065;-72
2022/02/25 00:05:15;;;;;;;13.17;6.37;;;;;;;14.62;44.67;100848.00;5015518;28;20050;-73
2022/02/25 00:07:42;;;;;;;9.00;5.07;;;;;;;14.43;44.36;100815.06;5016156;28;20042;-73
2022/02/25 00:10:10;;;;;;;10.33;5.60;;;;;;;14.66;44.31;100846.28;5010101;28;20467;-73
2022/02/25 00:12:40;;;;;;;10.83;4.77;;;;;;;14.69;44.11;100840.03;5014622;28;20054;-73
2022/02/25 00:15:07;;;;;;;;;;;;;;;14.69;44.36;100840.03;5017170;28;20200;-73
2022/02/25 00:17:34;;;;;;;9.43;5.00;;;;;;;14.64;43.99;100826.91;5009482;28;19953;-75
2022/02/25 00:20:01;;;;;;;10.57;5.23;;;;;;;14.74;44.03;100837.19;5009306;28;20474;-74
2022/02/25 00:22:28;;;;;;;7.47;4.17;;;;;;;14.55;44.05;100811.84;5016206;28;20106;-73
2022/02/25 00:24:55;;;;;;;10.63;4.70;;;;;;;14.66;44.01;100820.97;5011013;28;20081;-72
2022/02/25 00:27:22;;;;;;;6.40;4.60;;;;;;;14.78;43.99;100838.25;5004545;28;20483;-72
2022/02/25 00:29:48;;;;;;;6.70;4.43;;;;;;;14.65;43.91;100822.13;5010772;28;20077;-73
2022/02/25 00:32:16;;;;;;;7.77;3.93;;;;;;;14.81;43.78;100848.88;5011219;28;20082;-74
2022/02/25 00:34:43;;;;;;;6.50;4.33;;;;;;;14.82;43.75;100853.38;5001056;28;20061;-74
2022/02/25 00:37:10;;;;;;;11.13;3.67;;;;;;;14.71;43.94;100840.59;5007217;28;20120;-73
2022/02/25 00:39:37;;;;;;;7.43;5.03;;;;;;;14.66;43.75;100840.66;4978863;28;20078;-72
2022/02/25 00:42:07;;;;;;;19.23;7.43;;;;;;;14.78;43.89;100851.47;5014233;28;20240;-73
2022/02/25 00:44:34;;;;;;;9.82;5.60;;;;;;;14.53;43.98;100827.31;5014934;28;20419;-74
2022/02/25 00:47:01;;;;;;;10.63;4.97;;;;;;;14.67;43.99;100856.41;5005142;28;20112;-74
2022/02/25 00:49:28;;;;;;;9.80;5.17;;;;;;;14.40;43.96;100826.91;5009018;28;20077;-72
2022/02/25 00:51:55;;;;;;;13.57;6.80;;;;;;;14.46;43.98;100839.75;5014202;28;20077;-73
2022/02/25 00:54:22;;;;;;;13.30;7.20;;;;;;;14.47;44.31;100851.81;5030223;28;20085;-74
2022/02/25 00:56:55;;;;;;;10.47;5.30;;;;;;;14.53;44.35;100869.47;5015319;28;20056;-73
2022/02/25 00:59:25;;;;;;;13.93;6.87;;;;;;;14.34;44.47;100838.50;5011705;28;20065;-73
2022/02/25 01:01:55;;;;;;;13.00;7.67;;;;;;;14.24;44.54;100842.25;5016107;28;20073;-73
2022/02/25 01:04:22;;;;;;;18.17;9.27;;;;;;;14.23;44.92;100849.00;5014279;28;20050;-73
2022/02/25 01:06:51;;;;;;;13.03;8.00;;;;;;;14.28;45.02;100865.81;5008917;28;20138;-72
2022/02/25 01:09:19;;;;;;;19.23;11.02;;;;;;;14.13;45.20;100861.19;5021197;28;20066;-73
2022/02/25 01:11:46;;;;;;;16.53;6.87;;;;;;;13.65;45.23;100806.94;4997041;28;20395;-74
2022/02/25 01:14:13;;;;;;;5.73;4.13;;;;;;;13.16;45.12;100704.09;5000655;28;20518;-73
2022/02/25 01:16:40;;;;;;;10.00;4.67;;;;;;;14.13;45.05;100863.16;4995690;28;20098;-73
2022/02/25 01:19:07;;;;;;;7.97;4.23;;;;;;;13.88;44.85;100808.97;5013627;28;20155;-73
2022/02/25 01:21:36;;;;;;;7.93;4.23;;;;;;;14.05;44.84;100830.97;5012607;28;20141;-73
2022/02/25 01:24:04;;;;;;;8.40;4.27;;;;;;;14.13;44.70;100832.28;5010993;28;20081;-73
2022/02/25 01:26:31;;;;;;;9.43;3.17;;;;;;;14.10;44.54;100827.25;4998729;28;20503;-73
2022/02/25 01:28:58;;;;;;;6.40;3.17;;;;;;;14.31;44.38;100856.78;5000087;28;20054;-74
2022/02/25 01:31:28;;;;;;;6.57;3.50;;;;;;;13.83;44.42;100778.13;5012301;28;20050;-73
2022/02/25 01:33:56;;;;;;;7.70;3.00;;;;;;;12.31;44.23;100554.09;5012795;28;20125;-75
2022/02/25 01:36:24;;;;;;;6.90;3.23;;;;;;;13.87;44.28;100775.53;5001428;28;20413;-73
2022/02/25 01:38:51;;;;;;;6.40;3.13;;;;;;;13.19;44.08;100647.44;4991505;28;20399;-72
2022/02/25 01:41:19;;;;;;;4.30;2.33;;;;;;;12.86;44.07;100604.34;5007932;28;20132;-73
2022/02/25 01:43:48;;;;;;;5.72;2.40;;;;;;;13.63;44.08;100725.00;5016010;28;20049;-73
2022/02/25 01:46:15;;;;;;;19.97;8.47;;;;;;;13.71;43.79;100732.78;5021785;28;20077;-73
2022/02/25 01:48:45;;;;;;;5.68;2.60;;;;;;;14.01;43.23;100776.50;4982405;28;20041;-73
2022/02/25 01:51:12;;;;;;;5.13;2.30;;;;;;;14.62;43.02;100860.09;5009094;28;20137;-72
2022/02/25 01:53:39;;;;;;;5.33;1.97;;;;;;;13.69;42.46;100726.63;5001238;28;20108;-73
2022/02/25 01:56:06;;;;;;;3.30;2.07;;;;;;;14.18;42.33;100804.13;5012133;28;20053;-73
2022/02/25 01:58:33;;;;;;;4.53;2.00;;;;;;;14.56;42.14;100864.09;5018162;28;20578;-73
2022/02/25 02:01:00;;;;;;;3.73;1.97;;;;;;;14.72;41.97;100861.94;5018857;28;20491;-73
2022/02/25 02:03:27;;;;;;;3.60;1.90;;;;;;;14.79;41.86;100851.16;5012228;28;20054;-72
2022/02/25 02:05:55;;;;;;;7.13;3.20;;;;;;;14.69;42.04;100842.84;5011269;28;20049;-72
2022/02/25 02:08:23;;;;;;;3.53;2.63;;;;;;;14.82;42.32;100861.81;5014523;28;20045;-73
2022/02/25 02:10:53;;;;;;;7.23;3.60;;;;;;;14.63;42.50;100830.00;5010186;28;20069;-74
2022/02/25 02:13:20;;;;;;;7.63;3.53;;;;;;;14.52;42.76;100828.47;5011431;28;20818;-72
2022/02/25 02:15:47;;;;;;;7.47;3.27;;;;;;;14.52;42.80;100832.09;5010669;28;20871;-73
2022/02/25 02:18:14;;;;;;;7.73;3.27;;;;;;;14.65;42.68;100853.03;5027344;28;20375;-72
2022/02/25 02:20:41;;;;;;;4.40;2.40;;;;;;;14.64;42.63;100860.63;5028522;28;20140;-73
2022/02/25 02:23:08;;;;;;;7.27;3.07;;;;;;;14.58;42.54;100835.72;5003053;28;20049;-73
2022/02/25 02:25:35;;;;;;;5.33;2.60;;;;;;;14.59;42.57;100851.41;5012775;28;20081;-73
2022/02/25 02:28:21;;;;;;;6.33;2.60;;;;;;;14.67;42.70;100859.22;5011193;28;20125;-73
2022/02/25 02:30:48;;;;;;;4.80;2.40;;;;;;;14.41;42.88;100838.97;5008042;28;20133;-73
2022/02/25 02:33:15;;;;;;;6.73;3.03;;;;;;;14.50;42.94;100861.63;5017047;28;20137;-73
2022/02/25 02:35:42;;;;;;;5.13;2.40;;;;;;;14.29;42.68;100825.34;4997505;28;20499;-73
2022/02/25 02:38:09;;;;;;;5.93;2.63;;;;;;;14.48;42.49;100855.47;5003255;28;20528;-73
2022/02/25 02:40:36;;;;;;;4.03;2.27;;;;;;;14.41;42.28;100848.22;4999503;28;20141;-73
2022/02/25 02:43:07;;;;;;;3.33;2.33;;;;;;;14.43;42.39;100848.78;5004858;28;20061;-73
2022/02/25 02:45:37;;;;;;;4.73;2.20;;;;;;;14.27;42.17;100833.22;5019215;28;20049;-72
2022/02/25 02:48:04;;;;;;;4.40;2.27;;;;;;;14.17;42.18;100817.31;5011277;28;20132;-73
2022/02/25 02:50:31;;;;;;;8.17;2.07;;;;;;;14.31;41.96;100851.16;5010254;28;20088;-72
2022/02/25 02:52:58;;;;;;;5.47;2.20;;;;;;;14.31;41.86;100845.53;4997599;28;20084;-74
2022/02/25 02:55:25;;;;;;;6.10;2.37;;;;;;;14.15;41.88;100818.75;5012461;28;20088;-73
2022/02/25 02:57:54;;;;;;;4.03;2.10;;;;;;;14.29;41.73;100844.16;5015432;28;20098;-73
2022/02/25 03:00:22;;;;;;;3.53;1.95;;;;;;;14.29;41.84;100853.44;5033558;28;20057;-73
2022/02/25 03:02:48;;;;;;;5.90;2.50;;;;;;;14.32;41.77;100846.38;5027696;28;20406;-72
2022/02/25 03:05:18;;;;;;;6.70;2.80;;;;;;;14.39;41.83;100847.72;5018797;28;20767;-72
2022/02/25 03:07:46;;;;;;;5.97;2.42;;;;;;;14.10;42.10;100788.75;5013470;28;20112;-72
2022/02/25 03:10:14;;;;;;;6.57;2.60;;;;;;;14.29;42.26;100836.59;5005351;28;20103;-73
2022/02/25 03:12:42;;;;;;;6.53;2.30;;;;;;;14.17;42.06;100811.72;4996071;28;20050;-72
2022/02/25 03:15:11;;;;;;;7.20;2.80;;;;;;;14.15;42.02;100801.91;5026284;28;20084;-74
2022/02/25 03:17:38;;;;;;;4.10;2.17;;;;;;;14.21;41.97;100820.38;5009902;28;20128;-73
2022/02/25 03:20:06;;;;;;;4.67;1.70;;;;;;;14.14;41.97;100823.53;5007889;28;20575;-74
2022/02/25 03:22:34;;;;;;;4.13;2.10;;;;;;;14.36;41.95;100842.69;4998213;28;20127;-72
2022/02/25 03:25:01;;;;;;;5.83;2.27;;;;;;;14.27;41.95;100838.84;5003818;28;20154;-73
2022/02/25 03:27:28;;;;;;;3.23;1.77;;;;;;;14.18;42.03;100840.63;5005273;28;20053;-74
2022/02/25 03:29:56;;;;;;;4.37;1.93;;;;;;;14.11;41.97;100817.69;5016832;28;20088;-73
2022/02/25 03:32:24;;;;;;;3.33;2.03;;;;;;;14.15;41.88;100833.66;5001556;28;20072;-72
2022/02/25 03:34:52;;;;;;;4.23;1.80;;;;;;;14.03;41.98;100841.66;5017036;28;20050;-72
2022/02/25 03:37:19;;;;;;;4.40;1.87;;;;;;;13.88;41.98;100819.31;5011625;28;20554;-73
2022/02/25 03:39:47;;;;;;;7.40;1.70;;;;;;;13.95;41.89;100836.69;5009520;28;20098;-73
2022/02/25 03:42:14;;;;;;;6.23;1.50;;;;;;;13.75;41.78;100806.84;5007908;28;20050;-73
2022/02/25 03:44:41;;;;;;;4.00;2.00;;;;;;;13.90;41.79;100834.75;4993857;28;20074;-73
2022/02/25 03:47:08;;;;;;;4.17;1.80;;;;;;;13.72;41.83;100799.00;5007143;28;20426;-72
2022/02/25 03:49:35;;;;;;;5.47;2.13;;;;;;;13.92;41.79;100828.84;4995610;28;20084;-72
2022/02/25 03:52:02;;;;;;;2.77;1.83;;;;;;;13.97;41.91;100824.00;5011040;28;20080;-74
2022/02/25 03:54:29;;;;;;;6.00;1.97;;;;;;;13.87;41.60;100818.50;5004520;28;20414;-74
2022/02/25 03:56:56;;;;;;;3.13;1.43;;;;;;;13.77;41.99;100800.91;5003274;28;20092;-73
2022/02/25 03:59:23;;;;;;;4.87;2.10;;;;;;;13.96;41.66;100824.31;5016235;28;20086;-72
2022/02/25 04:01:52;;;;;;;4.60;1.97;;;;;;;13.78;41.72;100795.03;5019509;28;20136;-73
2022/02/25 04:04:22;;;;;;;3.63;1.45;;;;;;;13.91;41.80;100808.38;5005523;28;20100;-72
2022/02/25 04:06:49;;;;;;;3.00;1.83;;;;;;;13.97;41.54;100818.38;4994005;28;20154;-73
2022/02/25 04:09:18;;;;;;;6.63;1.70;;;;;;;14.03;41.49;100823.97;5011094;28;20046;-73
2022/02/25 04:11:46;;;;;;;5.03;1.70;;;;;;;13.92;41.47;100810.03;5001919;28;20507;-73
2022/02/25 04:14:14;;;;;;;4.83;1.97;;;;;;;14.04;41.53;100829.25;5009087;28;20129;-73
2022/02/25 04:16:42;;;;;;;8.37;1.60;;;;;;;14.05;41.56;100824.47;5007383;28;20121;-72
2022/02/25 04:19:09;;;;;;;4.47;1.70;;;;;;;13.95;41.57;100814.22;4998840;28;20050;-73
2022/02/25 04:21:36;;;;;;;2.63;1.37;;;;;;;13.92;41.60;100823.22;5004745;28;20085;-73
2022/02/25 04:24:03;;;;;;;3.53;1.40;;;;;;;13.82;41.71;100814.91;5029524;28;20137;-72
2022/02/25 04:26:30;;;;;;;2.53;1.27;;;;;;;13.65;41.90;100813.38;4996805;28;20100;-72
2022/02/25 04:28:57;;;;;;;4.30;1.43;;;;;;;13.88;41.58;100837.03;5012943;28;20510;-72
2022/02/25 04:31:24;;;;;;;7.43;1.80;;;;;;;13.91;41.54;100847.66;5027702;28;20112;-72
2022/02/25 04:33:52;;;;;;;7.93;2.23;;;;;;;13.92;41.34;100837.28;5010190;28;20549;-73
2022/02/25 04:36:21;;;;;;;6.43;2.10;;;;;;;13.88;41.44;100836.16;5006045;28;20070;-73
2022/02/25 04:38:50;;;;;;;4.25;1.60;;;;;;;13.84;41.40;100835.09;5015611;28;20041;-74
2022/02/25 04:41:17;;;;;;;13.07;5.13;;;;;;;13.69;41.53;100810.81;5015965;28;20524;-72
2022/02/25 04:43:45;;;;;;;7.80;3.77;;;;;;;13.60;41.38;100799.38;5015345;28;20088;-72
2022/02/25 04:46:20;;;;;;;3.77;1.70;;;;;;;13.79;41.46;100830.38;5010995;28;20045;-71
2022/02/25 04:48:47;;;;;;;2.93;1.60;;;;;;;13.82;41.49;100849.44;5010523;28;20446;-73
2022/02/25 04:51:18;;;;;;;7.00;1.77;;;;;;;13.49;41.32;100823.06;5010354;28;20159;-73
2022/02/25 04:53:46;;;;;;;8.30;2.20;;;;;;;13.47;41.37;100828.97;5028950;28;20518;-73
2022/02/25 04:56:14;;;;;;;1.23;0.87;;;;;;;13.60;41.10;100849.06;5014404;28;20081;-71
2022/02/25 04:58:41;;;;;;;3.37;1.00;;;;;;;13.36;41.01;100832.97;5015209;28;20121;-72
2022/02/25 05:01:08;;;;;;;7.50;1.70;;;;;;;13.65;40.90;100868.69;5023223;28;20471;-72
2022/02/25 05:03:37;;;;;;;3.07;1.40;;;;;;;13.60;40.53;100879.94;5017400;28;20533;-73
2022/02/25 05:06:04;;;;;;;3.70;1.43;;;;;;;13.47;40.66;100875.84;5002667;28;20046;-73
2022/02/25 05:08:31;;;;;;;1.37;0.93;;;;;;;13.48;40.60;100886.75;5007529;28;20130;-72
2022/02/25 05:10:58;;;;;;;3.03;1.47;;;;;;;13.53;40.45;100883.06;5027865;28;20163;-73
2022/02/25 05:13:25;;;;;;;2.23;1.20;;;;;;;13.38;40.36;100847.56;5012967;28;20057;-72
2022/02/25 05:21:23;;;;;;;0.97;0.50;;;;;;;13.44;40.40;100888.47;5011808;28;20046;-73
2022/02/25 05:23:51;;;;;;;4.20;1.43;;;;;;;13.40;40.13;100848.13;5013422;28;20585;-73
2022/02/25 05:26:18;;;;;;;2.50;0.80;;;;;;;13.42;40.19;100873.88;5024931;28;20114;-73
2022/02/25 05:28:46;;;;;;;2.83;1.37;;;;;;;13.51;40.18;100894.59;5019656;28;20046;-72
2022/02/25 05:31:14;;;;;;;3.83;1.37;;;;;;;13.47;40.06;100890.69;5004267;28;20077;-73
2022/02/25 05:33:42;;;;;;;2.10;1.50;;;;;;;13.37;40.01;100896.38;5013673;28;20085;-72
2022/02/25 05:36:08;;;;;;;6.50;1.90;;;;;;;13.39;40.01;100884.88;5006864;28;20133;-73
2022/02/25 05:38:35;;;;;;;2.37;1.13;;;;;;;13.41;39.60;100883.44;5009878;28;20078;-73
2022/02/25 05:41:02;;;;;;;2.60;0.50;;;;;;;13.49;39.75;100880.00;5001011;28;20141;-72
2022/02/25 05:43:30;;;;;;;4.73;1.00;;;;;;;13.57;39.61;100883.31;5024139;28;20138;-72
2022/02/25 05:45:57;;;;;;;2.60;1.37;;;;;;;13.35;39.81;100873.38;5005429;28;20537;-73
2022/02/25 05:48:24;;;;;;;2.83;1.10;;;;;;;13.53;39.59;100913.94;5005377;28;20100;-74
2022/02/25 05:50:52;;;;;;;1.20;0.87;;;;;;;13.31;39.67;100883.53;5012903;28;20054;-73
2022/02/25 05:53:19;;;;;;;0.50;0.50;;;;;;;13.32;39.58;100915.22;5018969;28;20141;-73
2022/02/25 05:55:45;;;;;;;1.03;0.70;;;;;;;13.13;39.63;100887.81;5000824;28;20552;-72
2022/02/25 05:58:14;;;;;;;0.63;0.50;;;;;;;13.00;39.95;100886.47;5008919;28;20077;-72
2022/02/25 06:00:41;;;;;;;0.30;0.30;;;;;;;13.39;39.48;100910.94;5026110;28;20057;-70
2022/02/25 06:03:09;;;;;;;3.70;0.80;;;;;;;13.21;39.66;100878.78;5019128;28;20061;-72
2022/02/25 06:05:36;;;;;;;3.53;0.73;;;;;;;13.33;39.52;100914.91;5029459;28;20137;-73
2022/02/25 06:08:03;;;;;;;0.17;0.17;;;;;;;13.21;39.84;100918.03;5012717;28;20132;-72
2022/02/25 06:10:30;;;;;;;2.00;0.70;;;;;;;13.14;39.63;100909.13;5010208;28;20057;-72
2022/02/25 06:13:00;;;;;;;0.87;0.53;;;;;;;13.31;39.85;100911.56;5015484;28;20050;-73
2022/02/25 06:15:27;;;;;;;0.20;0.20;;;;;;;13.25;39.62;100932.34;5013279;28;20046;-72
2022/02/25 06:17:59;;;;;;;0.33;0.33;;;;;;;13.20;39.93;100916.38;5004645;28;20129;-73
2022/02/25 06:20:26;;;;;;;0.93;0.63;;;;;;;13.31;39.86;100908.75;5006074;28;20069;-72
2022/02/25 06:22:55;;;;;;;6.15;0.77;;;;;;;12.99;39.84;100887.63;5005221;28;20445;-74
2022/02/25 06:25:22;;;;;;;2.23;0.70;;;;;;;13.24;39.76;100908.25;5001399;28;20050;-73
2022/02/25 06:27:49;;;;;;;1.07;0.23;;;;;;;12.93;40.01;100893.53;5020033;28;20046;-73
2022/02/25 06:30:16;;;;;;;1.37;0.60;;;;;;;12.84;40.28;100917.69;5027508;28;20103;-73
2022/02/25 06:32:44;;;;;;;0.20;0.20;;;;;;;12.88;40.08;100885.97;5014274;28;20084;-73
2022/02/25 06:35:11;;;;;;;0.60;0.50;;;;;;;12.94;40.06;100890.44;5013789;28;20045;-72
2022/02/25 06:37:39;;;;;;;2.03;0.93;;;;;;;12.66;40.44;100889.16;5013453;28;20108;-73
2022/02/25 06:40:07;;;;;;;3.20;0.90;;;;;;;12.86;40.45;100921.03;5003829;28;20145;-73
2022/02/25 06:42:34;;;;;;;1.33;0.57;;;;;;;12.61;40.76;100908.78;4998328;28;20089;-73
2022/02/25 06:45:01;;;;;;;1.70;0.67;;;;;;;12.89;40.45;100938.13;5012623;28;20080;-73
2022/02/25 06:47:28;;;;;;;2.73;0.67;;;;;;;12.74;40.76;100924.16;5001045;28;20081;-76
2022/02/25 06:49:55;;;;;;;7.17;1.47;;;;;;;12.45;40.93;100896.81;5007535;28;20534;-73
2022/02/25 06:52:23;;;;;;;1.20;1.10;;;;;;;12.96;40.35;100941.44;5004806;28;20049;-73
2022/02/25 06:54:50;;;;;;;0.40;0.40;;;;;;;12.69;40.71;100901.78;5027690;28;20076;-76
2022/02/25 06:57:17;;;;;;;0.60;0.60;;;;;;;12.90;40.63;100941.75;5016917;28;20053;-76
2022/02/25 06:59:44;;;;;;;4.43;0.57;;;;;;;12.48;41.35;100929.84;5011902;28;20088;-76
2022/02/25 07:02:11;;;;;;;1.90;0.70;;;;;;;12.36;41.70;100920.91;5017460;28;20084;-75
2022/02/25 07:04:38;;;;;;;4.43;0.70;;;;;;;12.49;41.65;100934.31;5026962;28;20080;-77
2022/02/25 07:07:05;;;;;;;1.20;1.07;;;;;;;12.08;42.05;100875.59;5013326;28;20537;-76
2022/02/25 07:09:32;;;;;;;1.07;0.67;;;;;;;12.45;41.65;100930.41;5011508;28;20134;-78
2022/02/25 07:11:59;;;;;;;2.87;0.70;;;;;;;12.25;41.98;100902.47;5009866;28;20129;-77
2022/02/25 07:14:26;;;;;;;7.37;6.97;;;;;;;12.38;42.00;100931.84;5012054;28;20068;-76
2022/02/25 07:16:53;;;;;;;6.40;6.10;;;;;;;12.40;42.12;100941.63;5013418;28;20507;-77
2022/02/25 07:19:20;;;;;;;7.33;6.93;;;;;;;12.52;41.73;100916.94;5008351;28;20072;-74
2022/02/25 07:21:47;;;;;;;6.30;6.00;;;;;;;12.57;41.59;100944.94;4997321;28;20125;-75
2022/02/25 07:24:17;;;;;;;9.03;8.53;;;;;;;12.63;41.61;100940.16;5011400;28;20047;-75
2022/02/25 07:26:43;;;;;;;6.70;6.40;;;;;;;12.84;41.12;100952.13;5027989;28;20130;-77
2022/02/25 07:29:11;;;;;;;6.57;6.27;;;;;;;12.82;41.25;100943.19;5012402;28;20491;-73
2022/02/25 07:31:39;;;;;;;6.87;6.30;;;;;;;12.82;41.12;100923.59;5014367;28;20395;-71
2022/02/25 07:34:06;;;;;;;6.73;6.43;;;;;;;12.63;41.58;100928.97;5000363;28;20581;-72
2022/02/25 07:36:35;;;;;;;8.53;8.03;;;;;;;12.99;41.22;100945.63;5022214;28;20137;-72
2022/02/25 07:39:04;;;;;;;7.20;6.70;;;;;;;13.03;40.75;100915.91;5018931;28;20073;-73
2022/02/25 07:41:31;;;;;;;6.97;6.57;;;;;;;13.17;40.80;100958.19;5011142;28;20140;-72
2022/02/25 07:43:58;;;;;;;8.97;8.33;;;;;;;13.23;40.56;100948.59;5007557;28;20133;-73
2022/02/25 07:46:26;;;;;;;9.13;8.33;;;;;;;13.40;40.42;100953.84;5027824;28;20085;-72
2022/02/25 07:49:13;;;;;;;7.10;6.60;;;;;;;13.39;40.20;100936.19;5005242;28;20705;-72
2022/02/25 07:51:40;;;;;;;7.13;6.73;;;;;;;13.44;40.42;100954.97;5011177;28;20088;-72
2022/02/25 07:54:07;;;;;;;7.47;6.93;;;;;;;13.54;40.24;100954.03;5010342;28;20108;-73
2022/02/25 07:56:34;;;;;;;8.50;8.10;;;;;;;13.62;40.27;100957.09;5007279;28;20050;-74
2022/02/25 07:59:02;;;;;;;8.30;7.53;;;;;;;13.71;40.17;100972.19;5015790;28;20049;-75
2022/02/25 08:01:29;;;;;;;7.20;6.80;;;;;;;13.75;40.17;100975.25;5016216;28;20082;-75
2022/02/25 08:03:56;;;;;;;9.53;9.03;;;;;;;13.78;40.22;100965.38;5015068;28;20064;-75
2022/02/25 08:06:23;;;;;;;9.60;8.93;;;;;;;13.72;40.55;100953.38;5016763;28;20574;-73
2022/02/25 08:08:50;;;;;;;7.27;6.57;;;;;;;13.77;40.19;100966.53;5016262;28;20128;-71
2022/02/25 08:11:17;;;;;;;6.33;5.93;;;;;;;13.90;40.54;100968.66;5015998;28;20085;-71
2022/02/25 08:13:44;;;;;;;8.80;6.73;;;;;;;14.01;40.28;100987.09;4995234;28;20576;-72
2022/02/25 08:16:11;;;;;;;6.83;6.43;;;;;;;14.01;40.27;100983.47;5020288;28;20088;-71
2022/02/25 08:18:38;;;;;;;6.87;6.37;;;;;;;13.97;40.21;100961.59;5016230;28;20462;-71
2022/02/25 08:21:05;;;;;;;7.00;6.50;;;;;;;14.23;40.03;100989.47;5015948;28;20637;-72
2022/02/25 08:23:32;;;;;;;6.93;6.43;;;;;;;14.31;39.90;101000.06;5016569;28;20395;-71
2022/02/25 08:25:59;;;;;;;6.87;6.37;;;;;;;14.17;40.12;100963.38;5016102;28;20133;-72
2022/02/25 08:28:26;;;;;;;8.80;7.93;;;;;;;14.49;39.71;100984.44;5015586;28;20057;-72
2022/02/25 08:30:53;;;;;;;9.47;6.33;;;;;;;14.69;39.93;101003.09;5016027;28;20084;-71
2022/02/25 08:33:20;;;;;;;9.50;8.80;;;;;;;14.88;39.69;100995.56;5010529;28;20057;-72
2022/02/25 08:35:47;;;;;;;6.80;6.40;;;;;;;14.80;39.44;100990.63;5003911;28;20457;-73
2022/02/25 08:38:17;;;;;;;6.70;6.30;;;;;;;14.69;39.21;100969.34;5020615;28;20180;-73
2022/02/25 08:40:44;;;;;;;;;;;;;;;14.95;39.09;100991.56;5016753;28;20446;-78
2022/02/25 08:43:12;;;;;;;9.37;8.77;;;;;;;15.11;38.71;100987.41;5007641;28;20024;-74
2022/02/25 08:45:41;;;;;;;7.43;7.03;;;;;;;15.39;38.77;100963.97;5009381;28;20097;-76
2022/02/25 08:48:11;;;;;;;8.90;8.30;;;;;;;15.58;38.38;100963.13;5007165;28;20046;-76
2022/02/25 08:50:39;;;;;;;9.97;9.03;;;;;;;15.53;38.35;100926.63;5009131;28;20065;-78
2022/02/25 08:53:07;;;;;;;7.90;6.57;;;;;;;15.87;37.81;100997.66;5009119;28;20085;-75
2022/02/25 08:55:34;;;;;;;7.40;6.87;;;;;;;15.75;37.58;100928.84;5002487;28;20126;-75
2022/02/25 08:58:02;;;;;;;7.27;6.80;;;;;;;16.32;37.31;100989.56;5012833;28;20522;-74
2022/02/25 09:00:30;;;;;;;6.60;6.20;;;;;;;16.37;36.99;100959.63;5013860;28;20098;-74
2022/02/25 09:02:57;;;;;;;6.60;6.00;;;;;;;17.01;36.79;101002.97;5030241;28;20077;-75
2022/02/25 09:05:25;;;;;;;6.70;6.20;;;;;;;17.35;36.68;100998.91;5019125;28;20100;-74
2022/02/25 09:07:53;;;;;;;7.50;6.80;;;;;;;17.44;35.78;100985.72;5016976;28;20129;-74
2022/02/25 09:10:22;;;;;;;7.27;6.83;;;;;;;17.83;35.83;101013.38;5018897;28;20483;-74
2022/02/25 09:12:49;;;;;;;6.78;6.38;;;;;;;18.01;35.41;101005.88;5017129;28;20561;-74
2022/02/25 09:15:22;;;;;;;6.50;6.20;;;;;;;17.69;34.58;100998.41;5020520;28;20077;-74
2022/02/25 09:17:53;;;;;;;9.32;8.82;;;;;;;17.63;35.02;101028.75;5017752;28;20053;-73
2022/02/25 09:20:21;;;;;;;6.80;6.40;;;;;;;17.64;34.69;101024.78;5016579;28;20125;-75
2022/02/25 09:22:48;;;;;;;6.80;6.50;;;;;;;17.48;34.98;100998.88;5012857;28;20093;-73
2022/02/25 09:25:19;;;;;;;7.10;6.70;;;;;;;17.51;34.72;101025.66;4996868;28;20050;-72
2022/02/25 09:27:46;;;;;;;7.30;6.72;;;;;;;17.53;34.84;101006.38;5013405;28;20065;-72
2022/02/25 09:30:14;;;;;;;7.05;6.55;;;;;;;17.50;34.96;100990.06;5024044;28;20049;-74
2022/02/25 09:32:42;;;;;;;0.85;0.73;;;;;;;17.13;34.45;100979.88;5040087;28;20100;-73
2022/02/25 09:35:09;;;;;;;1.55;0.93;;;;;;;17.22;34.94;101046.56;5039948;28;20034;-74
2022/02/25 09:37:36;;;;;;;4.18;0.93;;;;;;;16.95;34.86;101016.34;5032643;28;20050;-74
2022/02/25 09:40:06;;;;;;;1.80;0.70;;;;;;;17.44;35.13;101028.91;5036581;28;20041;-73
2022/02/25 09:42:34;;;;;;;3.38;0.80;;;;;;;17.62;34.73;101037.56;5043755;28;20061;-73
2022/02/25 09:45:01;;;;;;;5.00;0.75;;;;;;;17.28;34.54;101039.66;5025226;28;20061;-72
2022/02/25 09:47:29;;;;;;;2.33;0.80;;;;;;;17.16;34.55;101042.19;5049175;28;20046;-74
2022/02/25 09:49:56;;;;;;;1.35;0.93;;;;;;;17.02;35.07;101050.63;5048166;28;20053;-74
2022/02/25 09:52:25;;;;;;;2.65;1.25;;;;;;;17.10;34.70;101037.78;5031054;28;20057;-74
2022/02/25 09:54:53;;;;;;;0.60;0.52;;;;;;;17.30;34.66;101059.13;5034244;28;20042;-76
2022/02/25 09:57:21;;;;;;;1.27;0.82;;;;;;;16.81;34.42;101084.03;5029484;28;20032;-74
2022/02/25 09:59:49;;;;;;;1.42;0.80;;;;;;;16.89;34.81;101048.66;5032794;28;20037;-76
2022/02/25 10:02:16;;;;;;;1.58;0.80;;;;;;;16.97;34.93;101021.69;5013372;28;20057;-77
2022/02/25 10:04:43;;;;;;;3.60;1.05;;;;;;;17.53;34.46;101048.75;5039721;28;20038;-73
2022/02/25 10:07:25;;;;;;;1.10;0.80;;;;;;;17.27;34.05;101045.63;5022394;28;20054;-74
2022/02/25 10:09:53;;;;;;;2.75;1.25;;;;;;;17.35;33.89;101036.44;5013529;28;20132;-74
2022/02/25 10:12:22;;;;;;;1.80;0.95;;;;;;;17.42;33.86;101011.44;5003852;28;20053;-75
2022/02/25 10:14:50;;;;;;;4.18;0.68;;;;;;;17.45;33.72;101033.38;5010505;28;20053;-74
2022/02/25 10:17:26;;;;;;;0.40;0.40;;;;;;;17.40;34.09;101002.44;5000899;28;20141;-75
2022/02/25 10:19:58;;;;;;;9.07;2.50;;;;;;;17.43;34.18;101030.03;5006324;28;20074;-75
2022/02/25 10:22:35;;;;;;;0.80;0.60;;;;;;;17.48;33.99;101037.56;5017875;28;20096;-75
2022/02/25 10:25:06;;;;;;;3.85;1.10;;;;;;;17.41;34.08;101003.28;5012088;28;20081;-74
2022/02/25 10:27:42;;;;;;;1.60;0.80;;;;;;;17.68;33.89;101039.94;5002980;28;20080;-74
2022/02/25 10:30:09;;;;;;;0.63;0.63;;;;;;;17.61;33.62;101030.25;4995811;28;20085;-72
2022/02/25 10:32:42;;;;;;;1.35;0.60;;;;;;;17.20;34.24;101025.47;4997726;28;20129;-75
2022/02/25 10:35:26;;;;;;;2.47;0.90;;;;;;;17.10;34.38;101022.84;5005903;28;20053;-75
2022/02/25 10:38:09;;;;;;;1.63;1.27;;;;;;;17.62;34.36;101007.31;5003287;28;20071;-75
2022/02/25 10:40:42;;;;;;;1.42;1.05;;;;;;;17.95;33.82;101012.81;5008569;28;20080;-75
2022/02/25 10:43:21;;;;;;;4.07;1.25;;;;;;;17.93;33.98;101020.78;5002868;28;21194;-77
2022/02/25 10:45:53;;;;;;;1.23;0.98;;;;;;;17.91;33.81;101017.41;5011994;28;20485;-76
2022/02/25 10:48:23;;;;;;;0.75;0.63;;;;;;;18.02;33.61;100996.25;5007804;28;20065;-76
2022/02/25 10:50:58;;;;;;;4.57;1.00;;;;;;;17.77;33.71;100980.72;4996533;28;20176;-75
2022/02/25 10:53:34;;;;;;;1.35;0.73;;;;;;;17.88;33.61;100989.78;5007728;28;20060;-75
2022/02/25 10:56:06;;;;;;;0.50;0.50;;;;;;;17.70;33.65;100986.78;5005535;28;20050;-75
2022/02/25 10:58:41;;;;;;;2.20;1.45;;;;;;;17.51;34.26;101001.06;5001360;28;20687;-73
2022/02/25 11:01:12;;;;;;;1.55;0.95;;;;;;;17.50;34.39;100990.06;4998341;28;20054;-73
2022/02/25 11:03:41;;;;;;;0.73;0.73;;;;;;;17.29;34.23;100955.81;5000473;28;20419;-75
2022/02/25 11:06:09;;;;;;;1.52;1.20;;;;;;;17.35;34.66;100984.78;5000406;28;20499;-74
2022/02/25 11:08:37;;;;;;;4.93;2.90;;;;;;;17.23;34.38;100974.00;5001932;28;20089;-75
2022/02/25 11:11:07;;;;;;;2.40;2.20;;;;;;;17.17;34.40;100959.19;5003483;28;20043;-73
2022/02/25 11:13:34;;;;;;;1.42;1.23;;;;;;;17.37;34.62;100968.38;5027872;28;20061;-73
2022/02/25 11:16:01;;;;;;;3.38;1.70;;;;;;;17.18;34.45;100982.59;5008078;28;20138;-75
2022/02/25 11:18:30;;;;;;;1.15;0.90;;;;;;;17.12;34.51;100979.03;5008452;28;20058;-75
2022/02/25 11:20:58;;;;;;;2.65;1.13;;;;;;;16.99;34.99;100986.38;5020628;28;20069;-75
2022/02/25 11:23:26;;;;;;;1.75;1.00;;;;;;;17.19;34.41;100998.38;5014485;28;20073;-76
2022/02/25 11:25:53;;;;;;;1.75;1.08;;;;;;;17.35;34.70;100993.25;5024400;28;20060;-77
2022/02/25 11:28:23;;;;;;;1.75;0.85;;;;;;;17.72;34.13;100986.47;5015395;28;20406;-76
2022/02/25 11:31:28;;;;;;;1.70;1.10;;;;;;;17.63;34.50;101003.34;5028536;28;20057;-75
2022/02/25 11:33:57;;;;;;;2.35;1.95;;;;;;;17.58;34.36;101000.63;5007928;28;20210;-76